Airport Information

KCLS - Chehalis-Centralia Airport

KCLS 160815Z AUTO 00000KT 10SM CLR M00/M00 A2977 RMK AO2


  • General Information

  • Coordinates: N 46°24'22"/ W 122°35'22"
  • Location: N/A
  • Surveyed Elevation: 177 MSL

Operations

Flow Name Active Runways Conditions

Green background denotes normal operations.


Common Frequencies

Callsign Frequency Position Name

More at the Document Center


Charts

Name Description Cycle
Name Description Cycle